Plainville, Connecticut
Current Conditions -  °F | °C
As of 6:53 PM on Wednesday 22 Oct 2014 (Local Time) from KMMK Reporting Station
Light Rain Light Rain  
Wind Chill: 51°   Ceiling: 1500
Heat Index: 51°   Visibility: 8mi
Dew Point: 47°   Wind: 16mph
Humidity: 86%   Direction: 10°N
Pressure: 29.81"   Gusts: 24mph
Location:  41.67°N, 72.86°W
Report Text: KMMK 222253Z AUTO 01014G21KT 8SM -RA BKN015 BKN021 OVC027 11/08 A2981 RMK AO2 SLP095 P0007 T01060083 TSNO
Loading
Personal Weather Stations






























Interactive Weather Map
Tropical Storm Tracking
New forecast layout! Learn more

10-Day Weather Forecast

Advertisements
Track Severe Weather on mobile